sensor_id;sensor_type;location;lat;lon;timestamp;P1;durP1;ratioP1;P2;durP2;ratioP2
61322;SDS011;47203;48.428;11.974;2023-05-10T00:02:00;4.90;;;2.70;;
61322;SDS011;47203;48.428;11.974;2023-05-10T00:04:05;3.47;;;2.22;;
61322;SDS011;47203;48.428;11.974;2023-05-10T00:06:10;3.00;;;1.65;;
61322;SDS011;47203;48.428;11.974;2023-05-10T00:08:15;1.90;;;1.23;;
61322;SDS011;47203;48.428;11.974;2023-05-10T00:10:20;1.83;;;1.17;;
61322;SDS011;47203;48.428;11.974;2023-05-10T00:12:25;1.77;;;1.02;;
61322;SDS011;47203;48.428;11.974;2023-05-10T00:14:29;1.45;;;0.95;;
61322;SDS011;47203;48.428;11.974;2023-05-10T00:16:37;1.88;;;0.93;;
61322;SDS011;47203;48.428;11.974;2023-05-10T00:18:42;2.35;;;0.95;;
61322;SDS011;47203;48.428;11.974;2023-05-10T00:20:47;2.30;;;1.05;;
61322;SDS011;47203;48.428;11.974;2023-05-10T00:22:52;1.08;;;0.70;;
61322;SDS011;47203;48.428;11.974;2023-05-10T00:24:57;1.95;;;0.88;;
61322;SDS011;47203;48.428;11.974;2023-05-10T00:27:02;1.67;;;1.00;;
61322;SDS011;47203;48.428;11.974;2023-05-10T00:29:08;1.20;;;0.80;;
61322;SDS011;47203;48.428;11.974;2023-05-10T00:31:13;0.90;;;0.70;;
61322;SDS011;47203;48.428;11.974;2023-05-10T00:33:21;2.05;;;0.80;;
61322;SDS011;47203;48.428;11.974;2023-05-10T00:35:26;1.20;;;0.85;;
61322;SDS011;47203;48.428;11.974;2023-05-10T00:37:31;1.00;;;0.70;;
61322;SDS011;47203;48.428;11.974;2023-05-10T00:39:36;2.17;;;1.15;;
61322;SDS011;47203;48.428;11.974;2023-05-10T00:41:41;2.08;;;0.88;;
61322;SDS011;47203;48.428;11.974;2023-05-10T00:43:46;1.17;;;0.98;;
61322;SDS011;47203;48.428;11.974;2023-05-10T00:45:50;1.50;;;1.02;;
61322;SDS011;47203;48.428;11.974;2023-05-10T00:47:56;1.77;;;1.00;;
61322;SDS011;47203;48.428;11.974;2023-05-10T00:50:05;2.35;;;0.90;;
61322;SDS011;47203;48.428;11.974;2023-05-10T00:52:10;1.33;;;0.93;;
61322;SDS011;47203;48.428;11.974;2023-05-10T00:54:15;1.70;;;0.88;;
61322;SDS011;47203;48.428;11.974;2023-05-10T00:56:20;1.88;;;0.95;;
61322;SDS011;47203;48.428;11.974;2023-05-10T00:58:26;3.17;;;1.17;;
61322;SDS011;47203;48.428;11.974;2023-05-10T01:00:32;1.27;;;0.70;;
61322;SDS011;47203;48.428;11.974;2023-05-10T01:02:39;1.10;;;0.80;;
61322;SDS011;47203;48.428;11.974;2023-05-10T01:04:45;1.92;;;1.00;;
61322;SDS011;47203;48.428;11.974;2023-05-10T01:06:52;0.77;;;0.60;;
61322;SDS011;47203;48.428;11.974;2023-05-10T01:08:58;0.73;;;0.65;;
61322;SDS011;47203;48.428;11.974;2023-05-10T01:11:02;2.67;;;1.00;;
61322;SDS011;47203;48.428;11.974;2023-05-10T01:13:08;1.67;;;0.88;;
61322;SDS011;47203;48.428;11.974;2023-05-10T01:15:14;1.02;;;0.77;;
61322;SDS011;47203;48.428;11.974;2023-05-10T01:17:20;1.48;;;0.80;;
61322;SDS011;47203;48.428;11.974;2023-05-10T01:19:28;1.30;;;1.10;;
61322;SDS011;47203;48.428;11.974;2023-05-10T01:21:38;1.98;;;0.73;;
61322;SDS011;47203;48.428;11.974;2023-05-10T01:23:59;0.85;;;0.68;;
61322;SDS011;47203;48.428;11.974;2023-05-10T01:26:37;1.42;;;0.73;;
61322;SDS011;47203;48.428;11.974;2023-05-10T01:31:35;2.85;;;1.13;;
61322;SDS011;47203;48.428;11.974;2023-05-10T01:34:16;1.77;;;0.73;;
61322;SDS011;47203;48.428;11.974;2023-05-10T01:36:25;1.45;;;0.93;;
61322;SDS011;47203;48.428;11.974;2023-05-10T01:38:38;1.45;;;1.00;;
61322;SDS011;47203;48.428;11.974;2023-05-10T01:40:50;1.13;;;0.97;;
61322;SDS011;47203;48.428;11.974;2023-05-10T01:43:04;1.52;;;1.15;;
61322;SDS011;47203;48.428;11.974;2023-05-10T01:45:14;1.45;;;1.00;;
61322;SDS011;47203;48.428;11.974;2023-05-10T01:47:25;2.00;;;1.17;;
61322;SDS011;47203;48.428;11.974;2023-05-10T01:49:39;2.80;;;1.10;;
61322;SDS011;47203;48.428;11.974;2023-05-10T01:51:50;1.75;;;0.88;;
61322;SDS011;47203;48.428;11.974;2023-05-10T01:53:59;2.42;;;0.93;;
61322;SDS011;47203;48.428;11.974;2023-05-10T01:56:06;2.03;;;1.30;;
61322;SDS011;47203;48.428;11.974;2023-05-10T01:58:13;1.73;;;0.98;;
61322;SDS011;47203;48.428;11.974;2023-05-10T02:00:23;2.45;;;1.20;;
61322;SDS011;47203;48.428;11.974;2023-05-10T02:02:28;1.35;;;1.08;;
61322;SDS011;47203;48.428;11.974;2023-05-10T02:04:39;0.80;;;0.77;;
61322;SDS011;47203;48.428;11.974;2023-05-10T02:06:46;3.05;;;1.30;;
61322;SDS011;47203;48.428;11.974;2023-05-10T02:08:53;1.67;;;0.90;;
61322;SDS011;47203;48.428;11.974;2023-05-10T02:10:59;1.65;;;1.00;;
61322;SDS011;47203;48.428;11.974;2023-05-10T02:13:06;1.27;;;1.17;;
61322;SDS011;47203;48.428;11.974;2023-05-10T02:15:15;1.63;;;1.15;;
61322;SDS011;47203;48.428;11.974;2023-05-10T02:17:23;1.13;;;0.80;;
61322;SDS011;47203;48.428;11.974;2023-05-10T02:19:31;1.55;;;0.80;;
61322;SDS011;47203;48.428;11.974;2023-05-10T02:21:41;2.20;;;1.15;;
61322;SDS011;47203;48.428;11.974;2023-05-10T02:23:48;1.33;;;0.82;;
61322;SDS011;47203;48.428;11.974;2023-05-10T02:25:56;1.52;;;1.02;;
61322;SDS011;47203;48.428;11.974;2023-05-10T02:28:04;2.30;;;1.10;;
61322;SDS011;47203;48.428;11.974;2023-05-10T02:30:10;2.22;;;1.20;;
61322;SDS011;47203;48.428;11.974;2023-05-10T02:32:17;1.90;;;1.17;;
61322;SDS011;47203;48.428;11.974;2023-05-10T02:34:25;1.13;;;0.90;;
61322;SDS011;47203;48.428;11.974;2023-05-10T02:36:32;1.60;;;1.08;;
61322;SDS011;47203;48.428;11.974;2023-05-10T02:38:41;1.80;;;1.05;;
61322;SDS011;47203;48.428;11.974;2023-05-10T02:40:47;1.58;;;1.00;;
61322;SDS011;47203;48.428;11.974;2023-05-10T02:42:54;1.25;;;0.77;;
61322;SDS011;47203;48.428;11.974;2023-05-10T02:45:01;3.83;;;0.98;;
61322;SDS011;47203;48.428;11.974;2023-05-10T02:47:09;1.38;;;0.80;;
61322;SDS011;47203;48.428;11.974;2023-05-10T02:49:14;1.38;;;0.75;;
61322;SDS011;47203;48.428;11.974;2023-05-10T02:51:21;1.27;;;0.80;;
61322;SDS011;47203;48.428;11.974;2023-05-10T02:53:30;1.23;;;0.77;;
61322;SDS011;47203;48.428;11.974;2023-05-10T02:55:40;0.63;;;0.60;;
61322;SDS011;47203;48.428;11.974;2023-05-10T02:57:48;1.17;;;0.85;;
61322;SDS011;47203;48.428;11.974;2023-05-10T02:59:57;1.50;;;0.88;;
61322;SDS011;47203;48.428;11.974;2023-05-10T03:02:02;1.30;;;0.60;;
61322;SDS011;47203;48.428;11.974;2023-05-10T03:04:08;1.48;;;0.70;;
61322;SDS011;47203;48.428;11.974;2023-05-10T03:06:13;1.13;;;0.80;;
61322;SDS011;47203;48.428;11.974;2023-05-10T03:08:18;0.85;;;0.65;;
61322;SDS011;47203;48.428;11.974;2023-05-10T03:10:25;1.23;;;0.60;;
61322;SDS011;47203;48.428;11.974;2023-05-10T03:12:41;1.63;;;0.90;;
61322;SDS011;47203;48.428;11.974;2023-05-10T03:14:57;1.95;;;0.68;;
61322;SDS011;47203;48.428;11.974;2023-05-10T03:17:10;1.33;;;0.80;;
61322;SDS011;47203;48.428;11.974;2023-05-10T03:19:30;2.58;;;0.70;;
61322;SDS011;47203;48.428;11.974;2023-05-10T03:21:42;0.95;;;0.70;;
61322;SDS011;47203;48.428;11.974;2023-05-10T03:23:56;1.92;;;0.55;;
61322;SDS011;47203;48.428;11.974;2023-05-10T03:26:03;0.57;;;0.45;;
61322;SDS011;47203;48.428;11.974;2023-05-10T03:28:12;2.00;;;1.13;;
61322;SDS011;47203;48.428;11.974;2023-05-10T03:30:20;1.75;;;1.00;;
61322;SDS011;47203;48.428;11.974;2023-05-10T03:32:26;6.43;;;2.47;;
61322;SDS011;47203;48.428;11.974;2023-05-10T03:34:34;3.30;;;1.08;;
61322;SDS011;47203;48.428;11.974;2023-05-10T03:36:45;0.85;;;0.50;;
61322;SDS011;47203;48.428;11.974;2023-05-10T03:38:51;3.10;;;1.42;;
61322;SDS011;47203;48.428;11.974;2023-05-10T03:40:56;5.05;;;2.13;;
61322;SDS011;47203;48.428;11.974;2023-05-10T03:43:01;8.40;;;2.85;;
61322;SDS011;47203;48.428;11.974;2023-05-10T03:45:09;11.65;;;4.85;;
61322;SDS011;47203;48.428;11.974;2023-05-10T03:47:14;33.17;;;12.80;;
61322;SDS011;47203;48.428;11.974;2023-05-10T03:49:19;13.15;;;5.15;;
61322;SDS011;47203;48.428;11.974;2023-05-10T03:51:24;6.60;;;2.60;;
61322;SDS011;47203;48.428;11.974;2023-05-10T03:53:29;2.63;;;1.00;;
61322;SDS011;47203;48.428;11.974;2023-05-10T03:55:34;2.85;;;0.90;;
61322;SDS011;47203;48.428;11.974;2023-05-10T03:57:39;1.05;;;0.55;;
61322;SDS011;47203;48.428;11.974;2023-05-10T03:59:44;1.15;;;0.82;;
61322;SDS011;47203;48.428;11.974;2023-05-10T04:01:51;2.50;;;0.80;;
61322;SDS011;47203;48.428;11.974;2023-05-10T04:03:56;0.50;;;0.47;;
61322;SDS011;47203;48.428;11.974;2023-05-10T04:06:01;1.00;;;0.80;;
61322;SDS011;47203;48.428;11.974;2023-05-10T04:08:07;0.98;;;0.65;;
61322;SDS011;47203;48.428;11.974;2023-05-10T04:10:12;1.13;;;0.70;;
61322;SDS011;47203;48.428;11.974;2023-05-10T04:12:18;1.23;;;0.73;;
61322;SDS011;47203;48.428;11.974;2023-05-10T04:14:23;1.20;;;0.70;;
61322;SDS011;47203;48.428;11.974;2023-05-10T04:16:28;0.57;;;0.50;;
61322;SDS011;47203;48.428;11.974;2023-05-10T04:18:35;0.80;;;0.75;;
61322;SDS011;47203;48.428;11.974;2023-05-10T04:20:41;0.70;;;0.55;;
61322;SDS011;47203;48.428;11.974;2023-05-10T04:22:46;1.73;;;0.57;;
61322;SDS011;47203;48.428;11.974;2023-05-10T04:24:50;1.35;;;0.70;;
61322;SDS011;47203;48.428;11.974;2023-05-10T04:26:55;1.10;;;0.80;;
61322;SDS011;47203;48.428;11.974;2023-05-10T04:29:00;1.58;;;0.65;;
61322;SDS011;47203;48.428;11.974;2023-05-10T04:31:06;1.35;;;0.57;;
61322;SDS011;47203;48.428;11.974;2023-05-10T04:33:12;1.45;;;0.63;;
61322;SDS011;47203;48.428;11.974;2023-05-10T04:35:19;0.93;;;0.60;;
61322;SDS011;47203;48.428;11.974;2023-05-10T04:37:24;0.73;;;0.60;;
61322;SDS011;47203;48.428;11.974;2023-05-10T04:39:29;0.57;;;0.57;;
61322;SDS011;47203;48.428;11.974;2023-05-10T04:41:34;1.27;;;0.70;;
61322;SDS011;47203;48.428;11.974;2023-05-10T04:43:39;1.23;;;0.70;;
61322;SDS011;47203;48.428;11.974;2023-05-10T04:45:44;0.75;;;0.68;;
61322;SDS011;47203;48.428;11.974;2023-05-10T04:47:48;2.47;;;0.82;;
61322;SDS011;47203;48.428;11.974;2023-05-10T04:49:53;1.00;;;0.63;;
61322;SDS011;47203;48.428;11.974;2023-05-10T04:52:01;1.52;;;0.82;;
61322;SDS011;47203;48.428;11.974;2023-05-10T04:54:06;0.57;;;0.40;;
61322;SDS011;47203;48.428;11.974;2023-05-10T04:56:11;1.02;;;0.77;;
61322;SDS011;47203;48.428;11.974;2023-05-10T04:58:17;1.40;;;0.80;;
61322;SDS011;47203;48.428;11.974;2023-05-10T05:00:22;1.15;;;0.60;;
61322;SDS011;47203;48.428;11.974;2023-05-10T05:02:27;1.30;;;0.90;;
61322;SDS011;47203;48.428;11.974;2023-05-10T05:04:32;1.38;;;0.70;;
61322;SDS011;47203;48.428;11.974;2023-05-10T05:06:37;1.45;;;0.80;;
61322;SDS011;47203;48.428;11.974;2023-05-10T05:08:44;1.17;;;0.75;;
61322;SDS011;47203;48.428;11.974;2023-05-10T05:10:51;0.90;;;0.63;;
61322;SDS011;47203;48.428;11.974;2023-05-10T05:12:56;2.60;;;0.60;;
61322;SDS011;47203;48.428;11.974;2023-05-10T05:15:01;1.30;;;0.70;;
61322;SDS011;47203;48.428;11.974;2023-05-10T05:17:09;1.33;;;0.47;;
61322;SDS011;47203;48.428;11.974;2023-05-10T05:19:17;1.25;;;0.57;;
61322;SDS011;47203;48.428;11.974;2023-05-10T05:21:22;0.65;;;0.40;;
61322;SDS011;47203;48.428;11.974;2023-05-10T05:23:28;0.65;;;0.50;;
61322;SDS011;47203;48.428;11.974;2023-05-10T05:25:35;1.13;;;0.40;;
61322;SDS011;47203;48.428;11.974;2023-05-10T05:27:40;1.20;;;0.65;;
61322;SDS011;47203;48.428;11.974;2023-05-10T05:29:45;0.70;;;0.52;;
61322;SDS011;47203;48.428;11.974;2023-05-10T05:31:50;0.82;;;0.57;;
61322;SDS011;47203;48.428;11.974;2023-05-10T05:33:56;0.80;;;0.43;;
61322;SDS011;47203;48.428;11.974;2023-05-10T05:36:01;1.40;;;0.50;;
61322;SDS011;47203;48.428;11.974;2023-05-10T05:38:07;0.68;;;0.60;;
61322;SDS011;47203;48.428;11.974;2023-05-10T05:40:12;1.02;;;0.28;;
61322;SDS011;47203;48.428;11.974;2023-05-10T05:42:20;0.82;;;0.40;;
61322;SDS011;47203;48.428;11.974;2023-05-10T05:44:25;1.02;;;0.57;;
61322;SDS011;47203;48.428;11.974;2023-05-10T05:46:31;1.25;;;0.30;;
61322;SDS011;47203;48.428;11.974;2023-05-10T05:48:36;1.48;;;0.40;;
61322;SDS011;47203;48.428;11.974;2023-05-10T05:50:41;0.85;;;0.40;;
61322;SDS011;47203;48.428;11.974;2023-05-10T05:52:47;1.13;;;0.35;;
61322;SDS011;47203;48.428;11.974;2023-05-10T05:54:52;1.35;;;0.35;;
61322;SDS011;47203;48.428;11.974;2023-05-10T05:56:57;1.65;;;0.30;;
61322;SDS011;47203;48.428;11.974;2023-05-10T05:59:05;0.70;;;0.38;;
61322;SDS011;47203;48.428;11.974;2023-05-10T06:01:11;1.23;;;0.28;;
61322;SDS011;47203;48.428;11.974;2023-05-10T06:03:16;1.65;;;0.28;;
61322;SDS011;47203;48.428;11.974;2023-05-10T06:05:21;0.30;;;0.30;;
61322;SDS011;47203;48.428;11.974;2023-05-10T06:07:26;0.57;;;0.30;;
61322;SDS011;47203;48.428;11.974;2023-05-10T06:09:31;1.60;;;0.20;;
61322;SDS011;47203;48.428;11.974;2023-05-10T06:11:36;0.45;;;0.30;;
61322;SDS011;47203;48.428;11.974;2023-05-10T06:13:41;0.73;;;0.30;;
61322;SDS011;47203;48.428;11.974;2023-05-10T06:15:49;0.30;;;0.20;;
61322;SDS011;47203;48.428;11.974;2023-05-10T06:17:53;1.17;;;0.40;;
61322;SDS011;47203;48.428;11.974;2023-05-10T06:19:58;0.40;;;0.20;;
61322;SDS011;47203;48.428;11.974;2023-05-10T06:22:03;1.42;;;0.40;;
61322;SDS011;47203;48.428;11.974;2023-05-10T06:24:08;0.68;;;0.22;;
61322;SDS011;47203;48.428;11.974;2023-05-10T06:26:13;0.60;;;0.30;;
61322;SDS011;47203;48.428;11.974;2023-05-10T06:28:18;0.73;;;0.35;;
61322;SDS011;47203;48.428;11.974;2023-05-10T06:30:23;1.27;;;0.50;;
61322;SDS011;47203;48.428;11.974;2023-05-10T06:32:33;1.88;;;0.50;;
61322;SDS011;47203;48.428;11.974;2023-05-10T06:34:38;0.63;;;0.30;;
61322;SDS011;47203;48.428;11.974;2023-05-10T06:36:45;1.45;;;0.55;;
61322;SDS011;47203;48.428;11.974;2023-05-10T06:38:50;0.95;;;0.47;;
61322;SDS011;47203;48.428;11.974;2023-05-10T06:40:55;1.67;;;0.30;;
61322;SDS011;47203;48.428;11.974;2023-05-10T06:43:01;1.25;;;0.70;;
61322;SDS011;47203;48.428;11.974;2023-05-10T06:45:06;1.00;;;0.50;;
61322;SDS011;47203;48.428;11.974;2023-05-10T06:47:12;0.77;;;0.50;;
61322;SDS011;47203;48.428;11.974;2023-05-10T06:49:20;0.70;;;0.40;;
61322;SDS011;47203;48.428;11.974;2023-05-10T06:51:25;3.70;;;1.20;;
61322;SDS011;47203;48.428;11.974;2023-05-10T06:53:30;0.68;;;0.50;;
61322;SDS011;47203;48.428;11.974;2023-05-10T06:55:35;1.27;;;0.70;;
61322;SDS011;47203;48.428;11.974;2023-05-10T06:57:39;0.90;;;0.60;;
61322;SDS011;47203;48.428;11.974;2023-05-10T06:59:44;0.50;;;0.50;;
61322;SDS011;47203;48.428;11.974;2023-05-10T07:01:49;2.90;;;0.50;;
61322;SDS011;47203;48.428;11.974;2023-05-10T07:03:55;1.08;;;0.50;;
61322;SDS011;47203;48.428;11.974;2023-05-10T07:06:03;0.90;;;0.63;;
61322;SDS011;47203;48.428;11.974;2023-05-10T07:08:22;0.88;;;0.45;;
61322;SDS011;47203;48.428;11.974;2023-05-10T07:10:27;0.60;;;0.52;;
61322;SDS011;47203;48.428;11.974;2023-05-10T07:12:32;0.98;;;0.57;;
61322;SDS011;47203;48.428;11.974;2023-05-10T07:14:37;2.67;;;0.77;;
61322;SDS011;47203;48.428;11.974;2023-05-10T07:16:42;1.85;;;0.50;;
61322;SDS011;47203;48.428;11.974;2023-05-10T07:18:46;1.98;;;0.80;;
61322;SDS011;47203;48.428;11.974;2023-05-10T07:20:52;1.10;;;0.70;;
61322;SDS011;47203;48.428;11.974;2023-05-10T07:22:59;1.10;;;0.57;;
61322;SDS011;47203;48.428;11.974;2023-05-10T07:25:04;0.73;;;0.35;;
61322;SDS011;47203;48.428;11.974;2023-05-10T07:27:10;1.35;;;0.50;;
61322;SDS011;47203;48.428;11.974;2023-05-10T07:29:15;2.78;;;0.80;;
61322;SDS011;47203;48.428;11.974;2023-05-10T07:31:20;1.02;;;0.70;;
61322;SDS011;47203;48.428;11.974;2023-05-10T07:33:25;1.33;;;0.70;;
61322;SDS011;47203;48.428;11.974;2023-05-10T07:35:29;1.27;;;0.68;;
61322;SDS011;47203;48.428;11.974;2023-05-10T07:37:34;1.98;;;0.52;;
61322;SDS011;47203;48.428;11.974;2023-05-10T07:39:42;0.32;;;0.32;;
61322;SDS011;47203;48.428;11.974;2023-05-10T07:41:47;1.45;;;0.70;;
61322;SDS011;47203;48.428;11.974;2023-05-10T07:43:51;0.85;;;0.65;;
61322;SDS011;47203;48.428;11.974;2023-05-10T07:45:57;1.55;;;0.63;;
61322;SDS011;47203;48.428;11.974;2023-05-10T07:48:02;0.77;;;0.50;;
61322;SDS011;47203;48.428;11.974;2023-05-10T07:50:08;0.50;;;0.50;;
61322;SDS011;47203;48.428;11.974;2023-05-10T07:52:13;0.65;;;0.52;;
61322;SDS011;47203;48.428;11.974;2023-05-10T07:54:18;1.20;;;0.80;;
61322;SDS011;47203;48.428;11.974;2023-05-10T07:56:26;2.78;;;0.90;;
61322;SDS011;47203;48.428;11.974;2023-05-10T07:58:33;1.80;;;1.05;;
61322;SDS011;47203;48.428;11.974;2023-05-10T08:00:38;2.90;;;1.30;;
61322;SDS011;47203;48.428;11.974;2023-05-10T08:02:43;3.78;;;2.40;;
61322;SDS011;47203;48.428;11.974;2023-05-10T08:04:48;2.70;;;1.40;;
61322;SDS011;47203;48.428;11.974;2023-05-10T08:06:53;1.90;;;1.02;;
61322;SDS011;47203;48.428;11.974;2023-05-10T08:08:58;2.45;;;1.30;;
61322;SDS011;47203;48.428;11.974;2023-05-10T08:11:03;1.13;;;0.73;;
61322;SDS011;47203;48.428;11.974;2023-05-10T08:13:11;0.60;;;0.50;;
61322;SDS011;47203;48.428;11.974;2023-05-10T08:15:16;0.80;;;0.75;;
61322;SDS011;47203;48.428;11.974;2023-05-10T08:17:21;1.23;;;0.80;;
61322;SDS011;47203;48.428;11.974;2023-05-10T08:19:26;1.85;;;0.95;;
61322;SDS011;47203;48.428;11.974;2023-05-10T08:21:30;1.30;;;0.85;;
61322;SDS011;47203;48.428;11.974;2023-05-10T08:23:35;1.95;;;0.90;;
61322;SDS011;47203;48.428;11.974;2023-05-10T08:25:40;2.28;;;0.75;;
61322;SDS011;47203;48.428;11.974;2023-05-10T08:27:45;1.30;;;0.70;;
61322;SDS011;47203;48.428;11.974;2023-05-10T08:29:52;1.20;;;0.85;;
61322;SDS011;47203;48.428;11.974;2023-05-10T08:31:57;0.90;;;0.50;;
61322;SDS011;47203;48.428;11.974;2023-05-10T08:34:02;1.55;;;1.10;;
61322;SDS011;47203;48.428;11.974;2023-05-10T08:36:07;1.38;;;0.90;;
61322;SDS011;47203;48.428;11.974;2023-05-10T08:38:12;1.20;;;0.90;;
61322;SDS011;47203;48.428;11.974;2023-05-10T08:40:18;3.35;;;1.10;;
61322;SDS011;47203;48.428;11.974;2023-05-10T08:42:24;1.67;;;1.17;;
61322;SDS011;47203;48.428;11.974;2023-05-10T08:44:34;1.33;;;1.00;;
61322;SDS011;47203;48.428;11.974;2023-05-10T08:46:42;1.38;;;1.08;;
61322;SDS011;47203;48.428;11.974;2023-05-10T08:48:51;1.58;;;1.23;;
61322;SDS011;47203;48.428;11.974;2023-05-10T08:50:58;1.38;;;1.00;;
61322;SDS011;47203;48.428;11.974;2023-05-10T08:53:05;2.25;;;1.17;;
61322;SDS011;47203;48.428;11.974;2023-05-10T08:55:13;1.33;;;0.82;;
61322;SDS011;47203;48.428;11.974;2023-05-10T08:57:19;1.42;;;0.90;;
61322;SDS011;47203;48.428;11.974;2023-05-10T08:59:24;0.65;;;0.65;;
61322;SDS011;47203;48.428;11.974;2023-05-10T09:01:29;2.33;;;0.80;;
61322;SDS011;47203;48.428;11.974;2023-05-10T09:03:40;1.73;;;0.63;;
61322;SDS011;47203;48.428;11.974;2023-05-10T09:05:45;1.35;;;0.75;;
61322;SDS011;47203;48.428;11.974;2023-05-10T09:07:51;0.55;;;0.50;;
61322;SDS011;47203;48.428;11.974;2023-05-10T09:09:56;1.25;;;0.80;;
61322;SDS011;47203;48.428;11.974;2023-05-10T09:12:02;1.05;;;0.50;;
61322;SDS011;47203;48.428;11.974;2023-05-10T09:14:08;0.82;;;0.60;;
61322;SDS011;47203;48.428;11.974;2023-05-10T09:16:14;1.25;;;0.68;;
61322;SDS011;47203;48.428;11.974;2023-05-10T09:18:22;0.77;;;0.60;;
61322;SDS011;47203;48.428;11.974;2023-05-10T09:20:31;0.55;;;0.38;;
61322;SDS011;47203;48.428;11.974;2023-05-10T09:22:36;1.05;;;0.60;;
61322;SDS011;47203;48.428;11.974;2023-05-10T09:24:42;2.25;;;0.63;;
61322;SDS011;47203;48.428;11.974;2023-05-10T09:26:48;0.77;;;0.70;;
61322;SDS011;47203;48.428;11.974;2023-05-10T09:28:54;1.23;;;0.88;;
61322;SDS011;47203;48.428;11.974;2023-05-10T09:31:00;1.83;;;0.63;;
61322;SDS011;47203;48.428;11.974;2023-05-10T09:33:05;0.70;;;0.50;;
61322;SDS011;47203;48.428;11.974;2023-05-10T09:35:11;1.13;;;0.43;;
61322;SDS011;47203;48.428;11.974;2023-05-10T09:37:19;1.17;;;0.60;;
61322;SDS011;47203;48.428;11.974;2023-05-10T09:39:34;0.55;;;0.30;;
61322;SDS011;47203;48.428;11.974;2023-05-10T09:41:40;0.50;;;0.40;;
61322;SDS011;47203;48.428;11.974;2023-05-10T09:43:47;0.63;;;0.43;;
61322;SDS011;47203;48.428;11.974;2023-05-10T09:45:52;0.52;;;0.30;;
61322;SDS011;47203;48.428;11.974;2023-05-10T09:47:58;1.10;;;0.57;;
61322;SDS011;47203;48.428;11.974;2023-05-10T09:50:05;1.73;;;0.98;;
61322;SDS011;47203;48.428;11.974;2023-05-10T09:52:11;0.88;;;0.52;;
61322;SDS011;47203;48.428;11.974;2023-05-10T09:54:18;0.85;;;0.73;;
61322;SDS011;47203;48.428;11.974;2023-05-10T09:56:34;0.60;;;0.50;;
61322;SDS011;47203;48.428;11.974;2023-05-10T09:58:41;1.27;;;0.50;;
61322;SDS011;47203;48.428;11.974;2023-05-10T10:00:46;1.88;;;0.55;;
61322;SDS011;47203;48.428;11.974;2023-05-10T10:02:54;2.83;;;0.70;;
61322;SDS011;47203;48.428;11.974;2023-05-10T10:05:00;0.68;;;0.45;;
61322;SDS011;47203;48.428;11.974;2023-05-10T10:07:06;1.05;;;0.63;;
61322;SDS011;47203;48.428;11.974;2023-05-10T10:09:11;3.53;;;0.80;;
61322;SDS011;47203;48.428;11.974;2023-05-10T10:11:18;1.42;;;0.50;;
61322;SDS011;47203;48.428;11.974;2023-05-10T10:13:24;0.93;;;0.60;;
61322;SDS011;47203;48.428;11.974;2023-05-10T10:15:28;0.22;;;0.22;;
61322;SDS011;47203;48.428;11.974;2023-05-10T10:17:34;0.30;;;0.30;;
61322;SDS011;47203;48.428;11.974;2023-05-10T10:19:41;1.75;;;0.60;;
61322;SDS011;47203;48.428;11.974;2023-05-10T10:21:46;0.90;;;0.63;;
61322;SDS011;47203;48.428;11.974;2023-05-10T10:23:52;1.40;;;1.02;;
61322;SDS011;47203;48.428;11.974;2023-05-10T10:25:57;1.20;;;0.63;;
61322;SDS011;47203;48.428;11.974;2023-05-10T10:28:09;0.63;;;0.40;;
61322;SDS011;47203;48.428;11.974;2023-05-10T10:30:24;0.47;;;0.40;;
61322;SDS011;47203;48.428;11.974;2023-05-10T10:32:35;1.48;;;0.70;;
61322;SDS011;47203;48.428;11.974;2023-05-10T10:35:02;1.17;;;0.60;;
61322;SDS011;47203;48.428;11.974;2023-05-10T10:37:07;1.17;;;0.65;;
61322;SDS011;47203;48.428;11.974;2023-05-10T10:39:12;1.58;;;0.70;;
61322;SDS011;47203;48.428;11.974;2023-05-10T10:41:26;1.17;;;0.70;;
61322;SDS011;47203;48.428;11.974;2023-05-10T10:43:35;1.20;;;0.70;;
61322;SDS011;47203;48.428;11.974;2023-05-10T10:45:40;1.08;;;0.60;;
61322;SDS011;47203;48.428;11.974;2023-05-10T10:47:45;1.55;;;1.00;;
61322;SDS011;47203;48.428;11.974;2023-05-10T10:49:50;1.98;;;0.75;;
61322;SDS011;47203;48.428;11.974;2023-05-10T10:54:26;3.15;;;1.80;;
61322;SDS011;47203;48.428;11.974;2023-05-10T10:56:32;2.25;;;1.25;;
61322;SDS011;47203;48.428;11.974;2023-05-10T10:58:40;2.97;;;0.93;;
61322;SDS011;47203;48.428;11.974;2023-05-10T11:00:45;4.28;;;2.75;;
61322;SDS011;47203;48.428;11.974;2023-05-10T11:02:51;3.10;;;2.15;;
61322;SDS011;47203;48.428;11.974;2023-05-10T11:04:58;2.47;;;1.30;;
61322;SDS011;47203;48.428;11.974;2023-05-10T11:07:15;3.50;;;1.17;;
61322;SDS011;47203;48.428;11.974;2023-05-10T11:09:21;3.60;;;1.73;;
61322;SDS011;47203;48.428;11.974;2023-05-10T11:11:29;3.58;;;2.50;;
61322;SDS011;47203;48.428;11.974;2023-05-10T11:13:34;5.93;;;2.13;;
61322;SDS011;47203;48.428;11.974;2023-05-10T11:15:47;2.40;;;1.20;;
61322;SDS011;47203;48.428;11.974;2023-05-10T11:17:53;2.42;;;1.38;;
61322;SDS011;47203;48.428;11.974;2023-05-10T11:20:07;2.50;;;1.27;;
61322;SDS011;47203;48.428;11.974;2023-05-10T11:22:12;1.73;;;0.95;;
61322;SDS011;47203;48.428;11.974;2023-05-10T11:24:20;1.92;;;0.95;;
61322;SDS011;47203;48.428;11.974;2023-05-10T11:26:30;1.60;;;1.08;;
61322;SDS011;47203;48.428;11.974;2023-05-10T11:28:40;0.57;;;0.50;;
61322;SDS011;47203;48.428;11.974;2023-05-10T11:30:48;2.30;;;0.73;;
61322;SDS011;47203;48.428;11.974;2023-05-10T11:32:53;4.05;;;1.00;;
61322;SDS011;47203;48.428;11.974;2023-05-10T11:34:58;2.13;;;1.17;;
61322;SDS011;47203;48.428;11.974;2023-05-10T11:37:03;1.80;;;0.98;;
61322;SDS011;47203;48.428;11.974;2023-05-10T11:39:08;2.40;;;1.00;;
61322;SDS011;47203;48.428;11.974;2023-05-10T11:41:14;1.42;;;0.90;;
61322;SDS011;47203;48.428;11.974;2023-05-10T11:43:23;1.17;;;0.90;;
61322;SDS011;47203;48.428;11.974;2023-05-10T11:45:35;1.42;;;0.50;;
61322;SDS011;47203;48.428;11.974;2023-05-10T11:47:40;2.45;;;0.68;;
61322;SDS011;47203;48.428;11.974;2023-05-10T11:49:45;1.15;;;0.57;;
61322;SDS011;47203;48.428;11.974;2023-05-10T11:51:50;1.67;;;0.85;;
61322;SDS011;47203;48.428;11.974;2023-05-10T11:53:56;1.05;;;0.60;;
61322;SDS011;47203;48.428;11.974;2023-05-10T11:56:02;0.80;;;0.50;;
61322;SDS011;47203;48.428;11.974;2023-05-10T11:58:08;1.95;;;0.85;;
61322;SDS011;47203;48.428;11.974;2023-05-10T12:00:13;1.00;;;0.70;;
61322;SDS011;47203;48.428;11.974;2023-05-10T12:02:22;1.52;;;0.80;;
61322;SDS011;47203;48.428;11.974;2023-05-10T12:04:27;1.15;;;0.70;;
61322;SDS011;47203;48.428;11.974;2023-05-10T12:06:33;1.15;;;0.75;;
61322;SDS011;47203;48.428;11.974;2023-05-10T12:08:44;1.33;;;0.70;;
61322;SDS011;47203;48.428;11.974;2023-05-10T12:11:03;1.83;;;0.80;;
61322;SDS011;47203;48.428;11.974;2023-05-10T12:13:12;1.45;;;0.90;;
61322;SDS011;47203;48.428;11.974;2023-05-10T12:15:18;1.67;;;0.95;;
61322;SDS011;47203;48.428;11.974;2023-05-10T12:17:29;1.38;;;0.60;;
61322;SDS011;47203;48.428;11.974;2023-05-10T12:19:37;1.63;;;0.63;;
61322;SDS011;47203;48.428;11.974;2023-05-10T12:21:43;2.60;;;1.00;;
61322;SDS011;47203;48.428;11.974;2023-05-10T12:23:49;1.40;;;0.77;;
61322;SDS011;47203;48.428;11.974;2023-05-10T12:26:01;1.13;;;0.57;;
61322;SDS011;47203;48.428;11.974;2023-05-10T12:28:07;1.65;;;1.05;;
61322;SDS011;47203;48.428;11.974;2023-05-10T12:30:13;0.98;;;0.60;;
61322;SDS011;47203;48.428;11.974;2023-05-10T12:34:48;2.50;;;1.00;;
61322;SDS011;47203;48.428;11.974;2023-05-10T12:36:53;3.28;;;0.90;;
61322;SDS011;47203;48.428;11.974;2023-05-10T12:39:02;1.38;;;0.80;;
61322;SDS011;47203;48.428;11.974;2023-05-10T12:41:08;1.38;;;0.80;;